sensor_id;sensor_type;location;lat;lon;timestamp;P1;durP1;ratioP1;P2;durP2;ratioP2
10412;SDS011;5252;42.602;23.386;2022-10-23T00:01:20;16.98;;;14.80;;
10412;SDS011;5252;42.602;23.386;2022-10-23T00:03:49;17.40;;;15.00;;
10412;SDS011;5252;42.602;23.386;2022-10-23T00:06:16;20.10;;;14.48;;
10412;SDS011;5252;42.602;23.386;2022-10-23T00:08:43;17.85;;;14.68;;
10412;SDS011;5252;42.602;23.386;2022-10-23T00:11:11;17.02;;;15.23;;
10412;SDS011;5252;42.602;23.386;2022-10-23T00:13:38;19.08;;;15.88;;
10412;SDS011;5252;42.602;23.386;2022-10-23T00:16:05;17.95;;;16.05;;
10412;SDS011;5252;42.602;23.386;2022-10-23T00:18:33;19.02;;;16.55;;
10412;SDS011;5252;42.602;23.386;2022-10-23T00:21:00;19.70;;;15.68;;
10412;SDS011;5252;42.602;23.386;2022-10-23T00:23:27;18.30;;;15.23;;
10412;SDS011;5252;42.602;23.386;2022-10-23T00:25:53;16.73;;;15.02;;
10412;SDS011;5252;42.602;23.386;2022-10-23T00:28:20;17.02;;;15.23;;
10412;SDS011;5252;42.602;23.386;2022-10-23T00:30:46;14.95;;;13.40;;
10412;SDS011;5252;42.602;23.386;2022-10-23T00:33:13;14.60;;;13.10;;
10412;SDS011;5252;42.602;23.386;2022-10-23T00:35:41;15.65;;;11.02;;
10412;SDS011;5252;42.602;23.386;2022-10-23T00:38:08;16.38;;;13.88;;
10412;SDS011;5252;42.602;23.386;2022-10-23T00:40:35;15.65;;;12.27;;
10412;SDS011;5252;42.602;23.386;2022-10-23T00:43:01;12.05;;;10.70;;
10412;SDS011;5252;42.602;23.386;2022-10-23T00:45:29;18.27;;;10.88;;
10412;SDS011;5252;42.602;23.386;2022-10-23T00:47:57;12.60;;;10.48;;
10412;SDS011;5252;42.602;23.386;2022-10-23T00:50:24;16.10;;;13.07;;
10412;SDS011;5252;42.602;23.386;2022-10-23T00:52:53;14.20;;;10.70;;
10412;SDS011;5252;42.602;23.386;2022-10-23T00:55:22;13.32;;;10.57;;
10412;SDS011;5252;42.602;23.386;2022-10-23T00:57:49;13.65;;;9.75;;
10412;SDS011;5252;42.602;23.386;2022-10-23T01:00:16;11.35;;;9.60;;
10412;SDS011;5252;42.602;23.386;2022-10-23T01:02:43;11.30;;;9.32;;
10412;SDS011;5252;42.602;23.386;2022-10-23T01:05:09;10.18;;;8.85;;
10412;SDS011;5252;42.602;23.386;2022-10-23T01:07:37;14.52;;;9.10;;
10412;SDS011;5252;42.602;23.386;2022-10-23T01:10:10;10.75;;;7.43;;
10412;SDS011;5252;42.602;23.386;2022-10-23T01:12:43;10.32;;;8.15;;
10412;SDS011;5252;42.602;23.386;2022-10-23T01:15:12;13.85;;;9.50;;
10412;SDS011;5252;42.602;23.386;2022-10-23T01:17:42;10.00;;;8.43;;
10412;SDS011;5252;42.602;23.386;2022-10-23T01:20:13;16.05;;;13.57;;
10412;SDS011;5252;42.602;23.386;2022-10-23T01:22:49;16.35;;;13.65;;
10412;SDS011;5252;42.602;23.386;2022-10-23T01:25:21;18.63;;;15.25;;
10412;SDS011;5252;42.602;23.386;2022-10-23T01:27:51;19.95;;;17.85;;
10412;SDS011;5252;42.602;23.386;2022-10-23T01:30:20;19.38;;;17.00;;
10412;SDS011;5252;42.602;23.386;2022-10-23T01:32:48;18.60;;;16.60;;
10412;SDS011;5252;42.602;23.386;2022-10-23T01:35:18;21.20;;;17.70;;
10412;SDS011;5252;42.602;23.386;2022-10-23T01:37:46;21.63;;;19.42;;
10412;SDS011;5252;42.602;23.386;2022-10-23T01:40:18;30.48;;;22.65;;
10412;SDS011;5252;42.602;23.386;2022-10-23T01:42:46;22.42;;;18.02;;
10412;SDS011;5252;42.602;23.386;2022-10-23T01:45:16;57.67;;;41.75;;
10412;SDS011;5252;42.602;23.386;2022-10-23T01:47:44;36.78;;;27.08;;
10412;SDS011;5252;42.602;23.386;2022-10-23T01:50:11;20.58;;;18.35;;
10412;SDS011;5252;42.602;23.386;2022-10-23T01:52:39;19.67;;;17.65;;
10412;SDS011;5252;42.602;23.386;2022-10-23T01:55:05;19.98;;;17.55;;
10412;SDS011;5252;42.602;23.386;2022-10-23T01:57:33;18.85;;;17.00;;
10412;SDS011;5252;42.602;23.386;2022-10-23T02:00:00;17.85;;;15.85;;
10412;SDS011;5252;42.602;23.386;2022-10-23T02:02:28;21.55;;;16.10;;
10412;SDS011;5252;42.602;23.386;2022-10-23T02:04:57;19.38;;;15.60;;
10412;SDS011;5252;42.602;23.386;2022-10-23T02:07:25;17.25;;;15.48;;
10412;SDS011;5252;42.602;23.386;2022-10-23T02:09:51;19.10;;;16.23;;
10412;SDS011;5252;42.602;23.386;2022-10-23T02:12:21;19.75;;;16.45;;
10412;SDS011;5252;42.602;23.386;2022-10-23T02:14:52;15.82;;;14.23;;
10412;SDS011;5252;42.602;23.386;2022-10-23T02:17:20;17.63;;;15.25;;
10412;SDS011;5252;42.602;23.386;2022-10-23T02:19:49;19.17;;;15.20;;
10412;SDS011;5252;42.602;23.386;2022-10-23T02:22:21;16.85;;;15.20;;
10412;SDS011;5252;42.602;23.386;2022-10-23T02:24:50;17.70;;;14.82;;
10412;SDS011;5252;42.602;23.386;2022-10-23T02:27:19;16.80;;;14.77;;
10412;SDS011;5252;42.602;23.386;2022-10-23T02:29:47;23.95;;;19.33;;
10412;SDS011;5252;42.602;23.386;2022-10-23T02:32:15;16.10;;;14.10;;
10412;SDS011;5252;42.602;23.386;2022-10-23T02:34:43;17.83;;;14.18;;
10412;SDS011;5252;42.602;23.386;2022-10-23T02:37:11;14.88;;;13.38;;
10412;SDS011;5252;42.602;23.386;2022-10-23T02:39:38;14.82;;;13.07;;
10412;SDS011;5252;42.602;23.386;2022-10-23T02:42:05;15.05;;;12.50;;
10412;SDS011;5252;42.602;23.386;2022-10-23T02:44:36;14.85;;;12.60;;
10412;SDS011;5252;42.602;23.386;2022-10-23T02:47:09;13.98;;;12.30;;
10412;SDS011;5252;42.602;23.386;2022-10-23T02:49:38;15.05;;;13.23;;
10412;SDS011;5252;42.602;23.386;2022-10-23T02:52:08;13.60;;;11.77;;
10412;SDS011;5252;42.602;23.386;2022-10-23T02:54:52;13.68;;;10.65;;
10412;SDS011;5252;42.602;23.386;2022-10-23T02:57:24;13.43;;;10.68;;
10412;SDS011;5252;42.602;23.386;2022-10-23T02:59:56;12.75;;;10.95;;
10412;SDS011;5252;42.602;23.386;2022-10-23T03:02:27;13.25;;;11.85;;
10412;SDS011;5252;42.602;23.386;2022-10-23T03:04:57;18.05;;;13.63;;
10412;SDS011;5252;42.602;23.386;2022-10-23T03:07:24;12.50;;;8.55;;
10412;SDS011;5252;42.602;23.386;2022-10-23T03:09:52;14.85;;;10.75;;
10412;SDS011;5252;42.602;23.386;2022-10-23T03:12:19;15.02;;;9.85;;
10412;SDS011;5252;42.602;23.386;2022-10-23T03:14:45;11.27;;;8.93;;
10412;SDS011;5252;42.602;23.386;2022-10-23T03:17:12;13.85;;;8.20;;
10412;SDS011;5252;42.602;23.386;2022-10-23T03:19:38;10.23;;;8.80;;
10412;SDS011;5252;42.602;23.386;2022-10-23T03:22:05;16.70;;;9.35;;
10412;SDS011;5252;42.602;23.386;2022-10-23T03:24:31;10.77;;;7.55;;
10412;SDS011;5252;42.602;23.386;2022-10-23T03:26:59;11.02;;;8.55;;
10412;SDS011;5252;42.602;23.386;2022-10-23T03:29:26;14.23;;;8.80;;
10412;SDS011;5252;42.602;23.386;2022-10-23T03:31:52;14.40;;;8.13;;
10412;SDS011;5252;42.602;23.386;2022-10-23T03:34:19;15.18;;;9.00;;
10412;SDS011;5252;42.602;23.386;2022-10-23T03:36:46;12.10;;;8.60;;
10412;SDS011;5252;42.602;23.386;2022-10-23T03:39:13;14.07;;;8.88;;
10412;SDS011;5252;42.602;23.386;2022-10-23T03:41:39;12.43;;;7.93;;
10412;SDS011;5252;42.602;23.386;2022-10-23T03:44:07;10.77;;;7.28;;
10412;SDS011;5252;42.602;23.386;2022-10-23T03:46:34;11.07;;;8.13;;
10412;SDS011;5252;42.602;23.386;2022-10-23T03:49:00;10.02;;;6.65;;
10412;SDS011;5252;42.602;23.386;2022-10-23T03:51:27;10.98;;;6.50;;
10412;SDS011;5252;42.602;23.386;2022-10-23T03:53:53;8.98;;;6.85;;
10412;SDS011;5252;42.602;23.386;2022-10-23T03:56:20;10.10;;;6.32;;
10412;SDS011;5252;42.602;23.386;2022-10-23T03:58:46;11.00;;;5.55;;
10412;SDS011;5252;42.602;23.386;2022-10-23T04:01:14;8.13;;;6.07;;
10412;SDS011;5252;42.602;23.386;2022-10-23T04:03:41;9.63;;;5.47;;
10412;SDS011;5252;42.602;23.386;2022-10-23T04:06:07;7.93;;;5.68;;
10412;SDS011;5252;42.602;23.386;2022-10-23T04:08:34;9.30;;;5.40;;
10412;SDS011;5252;42.602;23.386;2022-10-23T04:11:01;10.32;;;5.38;;
10412;SDS011;5252;42.602;23.386;2022-10-23T04:13:27;7.60;;;4.78;;
10412;SDS011;5252;42.602;23.386;2022-10-23T04:15:54;10.13;;;5.28;;
10412;SDS011;5252;42.602;23.386;2022-10-23T04:18:22;7.93;;;4.38;;
10412;SDS011;5252;42.602;23.386;2022-10-23T04:20:48;30.95;;;23.20;;
10412;SDS011;5252;42.602;23.386;2022-10-23T04:23:15;8.25;;;5.05;;
10412;SDS011;5252;42.602;23.386;2022-10-23T04:25:42;7.93;;;4.45;;
10412;SDS011;5252;42.602;23.386;2022-10-23T04:28:08;5.65;;;4.55;;
10412;SDS011;5252;42.602;23.386;2022-10-23T04:30:36;6.47;;;4.68;;
10412;SDS011;5252;42.602;23.386;2022-10-23T04:33:02;7.35;;;4.28;;
10412;SDS011;5252;42.602;23.386;2022-10-23T04:35:30;7.68;;;4.40;;
10412;SDS011;5252;42.602;23.386;2022-10-23T04:37:57;10.10;;;4.47;;
10412;SDS011;5252;42.602;23.386;2022-10-23T04:40:23;9.35;;;5.13;;
10412;SDS011;5252;42.602;23.386;2022-10-23T04:42:50;6.53;;;4.50;;
10412;SDS011;5252;42.602;23.386;2022-10-23T04:45:16;6.72;;;5.28;;
10412;SDS011;5252;42.602;23.386;2022-10-23T04:47:43;8.57;;;5.03;;
10412;SDS011;5252;42.602;23.386;2022-10-23T04:50:09;7.28;;;4.68;;
10412;SDS011;5252;42.602;23.386;2022-10-23T04:52:37;8.90;;;4.63;;
10412;SDS011;5252;42.602;23.386;2022-10-23T04:55:05;7.22;;;4.38;;
10412;SDS011;5252;42.602;23.386;2022-10-23T04:57:32;8.38;;;4.80;;
10412;SDS011;5252;42.602;23.386;2022-10-23T04:59:58;8.95;;;4.72;;
10412;SDS011;5252;42.602;23.386;2022-10-23T05:02:25;10.32;;;4.88;;
10412;SDS011;5252;42.602;23.386;2022-10-23T05:04:51;6.47;;;4.50;;
10412;SDS011;5252;42.602;23.386;2022-10-23T05:07:18;6.15;;;4.53;;
10412;SDS011;5252;42.602;23.386;2022-10-23T05:09:46;9.93;;;6.53;;
10412;SDS011;5252;42.602;23.386;2022-10-23T05:12:13;14.57;;;7.18;;
10412;SDS011;5252;42.602;23.386;2022-10-23T05:14:39;9.65;;;5.05;;
10412;SDS011;5252;42.602;23.386;2022-10-23T05:17:06;8.88;;;5.05;;
10412;SDS011;5252;42.602;23.386;2022-10-23T05:19:35;7.75;;;4.65;;
10412;SDS011;5252;42.602;23.386;2022-10-23T05:22:04;9.35;;;5.20;;
10412;SDS011;5252;42.602;23.386;2022-10-23T05:24:31;14.63;;;4.85;;
10412;SDS011;5252;42.602;23.386;2022-10-23T05:26:59;9.38;;;4.93;;
10412;SDS011;5252;42.602;23.386;2022-10-23T05:29:25;6.90;;;4.78;;
10412;SDS011;5252;42.602;23.386;2022-10-23T05:31:53;6.53;;;4.72;;
10412;SDS011;5252;42.602;23.386;2022-10-23T05:34:21;9.05;;;4.90;;
10412;SDS011;5252;42.602;23.386;2022-10-23T05:36:49;7.35;;;4.72;;
10412;SDS011;5252;42.602;23.386;2022-10-23T05:39:16;7.13;;;4.85;;
10412;SDS011;5252;42.602;23.386;2022-10-23T05:41:43;10.73;;;7.72;;
10412;SDS011;5252;42.602;23.386;2022-10-23T05:44:11;9.52;;;5.40;;
10412;SDS011;5252;42.602;23.386;2022-10-23T05:46:39;9.73;;;5.50;;
10412;SDS011;5252;42.602;23.386;2022-10-23T05:49:05;8.88;;;5.57;;
10412;SDS011;5252;42.602;23.386;2022-10-23T05:51:34;8.55;;;6.03;;
10412;SDS011;5252;42.602;23.386;2022-10-23T05:54:01;8.07;;;6.10;;
10412;SDS011;5252;42.602;23.386;2022-10-23T05:56:27;11.45;;;5.80;;
10412;SDS011;5252;42.602;23.386;2022-10-23T05:58:54;11.55;;;5.63;;
10412;SDS011;5252;42.602;23.386;2022-10-23T06:01:21;7.38;;;5.00;;
10412;SDS011;5252;42.602;23.386;2022-10-23T06:03:48;8.27;;;5.55;;
10412;SDS011;5252;42.602;23.386;2022-10-23T06:06:15;8.32;;;5.75;;
10412;SDS011;5252;42.602;23.386;2022-10-23T06:08:41;9.65;;;5.68;;
10412;SDS011;5252;42.602;23.386;2022-10-23T06:11:09;9.55;;;6.72;;
10412;SDS011;5252;42.602;23.386;2022-10-23T06:13:36;8.52;;;6.03;;
10412;SDS011;5252;42.602;23.386;2022-10-23T06:16:09;10.43;;;6.70;;
10412;SDS011;5252;42.602;23.386;2022-10-23T06:18:36;8.57;;;6.30;;
10412;SDS011;5252;42.602;23.386;2022-10-23T06:21:03;9.82;;;6.25;;
10412;SDS011;5252;42.602;23.386;2022-10-23T06:23:30;12.98;;;6.20;;
10412;SDS011;5252;42.602;23.386;2022-10-23T06:25:57;11.43;;;8.48;;
10412;SDS011;5252;42.602;23.386;2022-10-23T06:28:24;26.15;;;14.98;;
10412;SDS011;5252;42.602;23.386;2022-10-23T06:30:50;13.30;;;6.30;;
10412;SDS011;5252;42.602;23.386;2022-10-23T06:33:17;10.38;;;6.80;;
10412;SDS011;5252;42.602;23.386;2022-10-23T06:35:45;10.23;;;5.43;;
10412;SDS011;5252;42.602;23.386;2022-10-23T06:38:12;7.72;;;5.00;;
10412;SDS011;5252;42.602;23.386;2022-10-23T06:40:38;6.35;;;4.70;;
10412;SDS011;5252;42.602;23.386;2022-10-23T06:43:05;7.07;;;3.80;;
10412;SDS011;5252;42.602;23.386;2022-10-23T06:45:33;6.55;;;4.45;;
10412;SDS011;5252;42.602;23.386;2022-10-23T06:48:00;6.32;;;3.90;;
10412;SDS011;5252;42.602;23.386;2022-10-23T06:50:26;9.05;;;4.53;;
10412;SDS011;5252;42.602;23.386;2022-10-23T06:52:56;4.85;;;4.32;;
10412;SDS011;5252;42.602;23.386;2022-10-23T06:55:23;9.20;;;4.60;;
10412;SDS011;5252;42.602;23.386;2022-10-23T06:57:49;7.90;;;4.65;;
10412;SDS011;5252;42.602;23.386;2022-10-23T07:00:16;11.25;;;4.40;;
10412;SDS011;5252;42.602;23.386;2022-10-23T07:02:43;10.57;;;5.03;;
10412;SDS011;5252;42.602;23.386;2022-10-23T07:05:09;6.80;;;4.78;;
10412;SDS011;5252;42.602;23.386;2022-10-23T07:07:36;7.88;;;4.95;;
10412;SDS011;5252;42.602;23.386;2022-10-23T07:10:04;10.02;;;4.75;;
10412;SDS011;5252;42.602;23.386;2022-10-23T07:12:31;9.82;;;4.38;;
10412;SDS011;5252;42.602;23.386;2022-10-23T07:14:57;5.28;;;4.35;;
10412;SDS011;5252;42.602;23.386;2022-10-23T07:17:24;6.70;;;4.60;;
10412;SDS011;5252;42.602;23.386;2022-10-23T07:19:50;7.20;;;4.00;;
10412;SDS011;5252;42.602;23.386;2022-10-23T07:22:17;9.10;;;4.18;;
10412;SDS011;5252;42.602;23.386;2022-10-23T07:24:44;4.97;;;3.80;;
10412;SDS011;5252;42.602;23.386;2022-10-23T07:27:11;5.63;;;3.72;;
10412;SDS011;5252;42.602;23.386;2022-10-23T07:29:38;5.00;;;3.58;;
10412;SDS011;5252;42.602;23.386;2022-10-23T07:32:05;6.82;;;3.47;;
10412;SDS011;5252;42.602;23.386;2022-10-23T07:34:31;5.75;;;3.30;;
10412;SDS011;5252;42.602;23.386;2022-10-23T07:37:00;8.55;;;4.50;;
10412;SDS011;5252;42.602;23.386;2022-10-23T07:39:33;5.97;;;3.85;;
10412;SDS011;5252;42.602;23.386;2022-10-23T07:42:00;4.82;;;3.17;;
10412;SDS011;5252;42.602;23.386;2022-10-23T07:44:28;6.85;;;3.00;;
10412;SDS011;5252;42.602;23.386;2022-10-23T07:46:54;5.20;;;3.25;;
10412;SDS011;5252;42.602;23.386;2022-10-23T07:49:21;5.95;;;3.95;;
10412;SDS011;5252;42.602;23.386;2022-10-23T07:51:47;5.72;;;3.75;;
10412;SDS011;5252;42.602;23.386;2022-10-23T07:54:15;3.88;;;3.30;;
10412;SDS011;5252;42.602;23.386;2022-10-23T07:56:42;6.38;;;3.75;;
10412;SDS011;5252;42.602;23.386;2022-10-23T07:59:09;5.57;;;3.20;;
10412;SDS011;5252;42.602;23.386;2022-10-23T08:01:38;6.90;;;3.28;;
10412;SDS011;5252;42.602;23.386;2022-10-23T08:04:06;6.20;;;3.05;;
10412;SDS011;5252;42.602;23.386;2022-10-23T08:06:33;7.18;;;3.35;;
10412;SDS011;5252;42.602;23.386;2022-10-23T08:09:00;7.75;;;3.10;;
10412;SDS011;5252;42.602;23.386;2022-10-23T08:11:27;6.60;;;3.22;;
10412;SDS011;5252;42.602;23.386;2022-10-23T08:13:59;5.32;;;3.00;;
10412;SDS011;5252;42.602;23.386;2022-10-23T08:16:29;4.88;;;3.22;;
10412;SDS011;5252;42.602;23.386;2022-10-23T08:18:57;24.20;;;15.13;;
10412;SDS011;5252;42.602;23.386;2022-10-23T08:21:24;5.93;;;3.40;;
10412;SDS011;5252;42.602;23.386;2022-10-23T08:23:51;4.03;;;2.72;;
10412;SDS011;5252;42.602;23.386;2022-10-23T08:26:18;3.67;;;2.40;;
10412;SDS011;5252;42.602;23.386;2022-10-23T08:28:45;3.80;;;2.80;;
10412;SDS011;5252;42.602;23.386;2022-10-23T08:31:12;4.05;;;2.90;;
10412;SDS011;5252;42.602;23.386;2022-10-23T08:33:39;6.13;;;2.75;;
10412;SDS011;5252;42.602;23.386;2022-10-23T08:36:12;4.45;;;2.83;;
10412;SDS011;5252;42.602;23.386;2022-10-23T08:38:40;4.97;;;2.22;;
10412;SDS011;5252;42.602;23.386;2022-10-23T08:41:11;5.25;;;2.40;;
10412;SDS011;5252;42.602;23.386;2022-10-23T08:43:45;5.40;;;2.50;;
10412;SDS011;5252;42.602;23.386;2022-10-23T08:46:13;5.10;;;3.00;;
10412;SDS011;5252;42.602;23.386;2022-10-23T08:48:41;4.53;;;2.55;;
10412;SDS011;5252;42.602;23.386;2022-10-23T08:51:12;5.57;;;2.95;;
10412;SDS011;5252;42.602;23.386;2022-10-23T08:53:40;3.90;;;2.33;;
10412;SDS011;5252;42.602;23.386;2022-10-23T08:56:11;5.60;;;3.83;;
10412;SDS011;5252;42.602;23.386;2022-10-23T08:58:39;7.38;;;2.97;;
10412;SDS011;5252;42.602;23.386;2022-10-23T09:01:15;3.22;;;2.60;;
10412;SDS011;5252;42.602;23.386;2022-10-23T09:03:46;4.10;;;3.00;;
10412;SDS011;5252;42.602;23.386;2022-10-23T09:06:15;3.92;;;2.70;;
10412;SDS011;5252;42.602;23.386;2022-10-23T09:08:46;5.63;;;2.80;;
10412;SDS011;5252;42.602;23.386;2022-10-23T09:11:15;4.68;;;2.70;;
10412;SDS011;5252;42.602;23.386;2022-10-23T09:13:49;6.18;;;2.35;;
10412;SDS011;5252;42.602;23.386;2022-10-23T09:16:24;5.72;;;2.38;;
10412;SDS011;5252;42.602;23.386;2022-10-23T09:18:53;5.15;;;2.88;;
10412;SDS011;5252;42.602;23.386;2022-10-23T09:21:25;3.95;;;2.17;;
10412;SDS011;5252;42.602;23.386;2022-10-23T09:23:52;2.58;;;2.20;;
10412;SDS011;5252;42.602;23.386;2022-10-23T09:26:19;5.18;;;2.40;;
10412;SDS011;5252;42.602;23.386;2022-10-23T09:28:46;5.68;;;2.33;;
10412;SDS011;5252;42.602;23.386;2022-10-23T09:31:13;5.93;;;2.78;;
10412;SDS011;5252;42.602;23.386;2022-10-23T09:33:40;6.40;;;2.30;;
10412;SDS011;5252;42.602;23.386;2022-10-23T09:36:07;2.78;;;2.22;;
10412;SDS011;5252;42.602;23.386;2022-10-23T09:38:46;5.85;;;3.22;;
10412;SDS011;5252;42.602;23.386;2022-10-23T09:41:15;4.30;;;2.75;;
10412;SDS011;5252;42.602;23.386;2022-10-23T09:43:42;2.85;;;2.45;;
10412;SDS011;5252;42.602;23.386;2022-10-23T09:46:09;3.95;;;2.38;;
10412;SDS011;5252;42.602;23.386;2022-10-23T09:48:37;4.07;;;2.50;;
10412;SDS011;5252;42.602;23.386;2022-10-23T09:51:11;3.35;;;2.50;;
10412;SDS011;5252;42.602;23.386;2022-10-23T09:53:46;4.50;;;2.45;;
10412;SDS011;5252;42.602;23.386;2022-10-23T09:56:23;5.00;;;2.40;;
10412;SDS011;5252;42.602;23.386;2022-10-23T09:58:51;2.63;;;1.85;;
10412;SDS011;5252;42.602;23.386;2022-10-23T10:01:22;3.80;;;2.22;;
10412;SDS011;5252;42.602;23.386;2022-10-23T10:03:49;4.88;;;2.15;;
10412;SDS011;5252;42.602;23.386;2022-10-23T10:06:20;7.05;;;2.50;;
10412;SDS011;5252;42.602;23.386;2022-10-23T10:08:47;3.00;;;2.35;;
10412;SDS011;5252;42.602;23.386;2022-10-23T10:11:16;4.00;;;1.80;;
10412;SDS011;5252;42.602;23.386;2022-10-23T10:14:02;3.13;;;1.80;;
10412;SDS011;5252;42.602;23.386;2022-10-23T10:16:37;2.75;;;1.70;;
10412;SDS011;5252;42.602;23.386;2022-10-23T10:19:09;2.65;;;2.33;;
10412;SDS011;5252;42.602;23.386;2022-10-23T10:21:39;2.75;;;2.25;;
10412;SDS011;5252;42.602;23.386;2022-10-23T10:24:10;2.40;;;1.85;;
10412;SDS011;5252;42.602;23.386;2022-10-23T10:26:38;3.40;;;2.08;;
10412;SDS011;5252;42.602;23.386;2022-10-23T10:29:12;2.75;;;1.90;;
10412;SDS011;5252;42.602;23.386;2022-10-23T10:31:42;3.17;;;1.63;;
10412;SDS011;5252;42.602;23.386;2022-10-23T10:34:13;3.00;;;1.75;;
10412;SDS011;5252;42.602;23.386;2022-10-23T10:36:46;2.60;;;1.75;;
10412;SDS011;5252;42.602;23.386;2022-10-23T10:39:18;1.92;;;1.50;;
10412;SDS011;5252;42.602;23.386;2022-10-23T10:44:37;2.28;;;1.50;;
10412;SDS011;5252;42.602;23.386;2022-10-23T10:47:10;2.90;;;1.50;;
10412;SDS011;5252;42.602;23.386;2022-10-23T10:49:39;3.45;;;1.70;;
10412;SDS011;5252;42.602;23.386;2022-10-23T10:52:09;2.67;;;1.20;;
10412;SDS011;5252;42.602;23.386;2022-10-23T10:54:42;3.97;;;1.60;;
10412;SDS011;5252;42.602;23.386;2022-10-23T10:57:12;4.22;;;1.60;;
10412;SDS011;5252;42.602;23.386;2022-10-23T10:59:43;3.42;;;1.55;;
10412;SDS011;5252;42.602;23.386;2022-10-23T11:02:17;4.43;;;1.50;;
10412;SDS011;5252;42.602;23.386;2022-10-23T11:04:46;4.70;;;1.83;;
10412;SDS011;5252;42.602;23.386;2022-10-23T11:07:18;2.53;;;1.30;;
10412;SDS011;5252;42.602;23.386;2022-10-23T11:09:46;3.50;;;1.52;;
10412;SDS011;5252;42.602;23.386;2022-10-23T11:12:14;3.45;;;1.70;;
10412;SDS011;5252;42.602;23.386;2022-10-23T11:14:43;2.20;;;1.70;;
10412;SDS011;5252;42.602;23.386;2022-10-23T11:17:12;4.88;;;1.83;;
10412;SDS011;5252;42.602;23.386;2022-10-23T11:19:42;2.17;;;1.63;;
10412;SDS011;5252;42.602;23.386;2022-10-23T11:22:11;3.05;;;2.00;;
10412;SDS011;5252;42.602;23.386;2022-10-23T11:24:50;2.78;;;1.88;;
10412;SDS011;5252;42.602;23.386;2022-10-23T11:27:26;5.60;;;1.90;;
10412;SDS011;5252;42.602;23.386;2022-10-23T11:30:07;3.22;;;1.70;;
10412;SDS011;5252;42.602;23.386;2022-10-23T11:32:49;1.73;;;1.55;;
10412;SDS011;5252;42.602;23.386;2022-10-23T11:35:23;2.65;;;1.58;;
10412;SDS011;5252;42.602;23.386;2022-10-23T11:37:58;3.38;;;1.60;;
10412;SDS011;5252;42.602;23.386;2022-10-23T11:40:25;2.42;;;1.95;;
10412;SDS011;5252;42.602;23.386;2022-10-23T11:42:52;1.63;;;1.52;;
10412;SDS011;5252;42.602;23.386;2022-10-23T11:45:31;2.58;;;1.77;;
10412;SDS011;5252;42.602;23.386;2022-10-23T11:47:58;2.90;;;1.80;;
10412;SDS011;5252;42.602;23.386;2022-10-23T11:50:27;3.88;;;1.80;;
10412;SDS011;5252;42.602;23.386;2022-10-23T11:52:58;3.38;;;1.70;;
10412;SDS011;5252;42.602;23.386;2022-10-23T11:55:25;2.95;;;1.70;;
10412;SDS011;5252;42.602;23.386;2022-10-23T11:58:06;2.58;;;2.13;;
10412;SDS011;5252;42.602;23.386;2022-10-23T12:00:37;3.28;;;1.80;;
10412;SDS011;5252;42.602;23.386;2022-10-23T12:03:05;4.97;;;1.55;;
10412;SDS011;5252;42.602;23.386;2022-10-23T12:05:40;3.70;;;1.60;;
10412;SDS011;5252;42.602;23.386;2022-10-23T12:08:16;1.70;;;1.60;;
10412;SDS011;5252;42.602;23.386;2022-10-23T12:10:45;3.20;;;1.88;;
10412;SDS011;5252;42.602;23.386;2022-10-23T12:13:25;4.90;;;2.00;;
10412;SDS011;5252;42.602;23.386;2022-10-23T12:15:54;2.42;;;1.63;;
10412;SDS011;5252;42.602;23.386;2022-10-23T12:18:21;2.95;;;1.73;;
10412;SDS011;5252;42.602;23.386;2022-10-23T12:20:49;2.58;;;1.73;;
10412;SDS011;5252;42.602;23.386;2022-10-23T12:28:47;4.45;;;1.50;;
10412;SDS011;5252;42.602;23.386;2022-10-23T12:31:26;2.45;;;1.60;;
10412;SDS011;5252;42.602;23.386;2022-10-23T12:33:57;4.53;;;1.70;;
10412;SDS011;5252;42.602;23.386;2022-10-23T12:36:29;1.73;;;1.58;;
10412;SDS011;5252;42.602;23.386;2022-10-23T12:39:22;1.60;;;1.50;;
10412;SDS011;5252;42.602;23.386;2022-10-23T12:41:49;1.88;;;1.50;;
10412;SDS011;5252;42.602;23.386;2022-10-23T12:44:15;4.95;;;1.75;;
10412;SDS011;5252;42.602;23.386;2022-10-23T12:46:45;2.38;;;1.52;;
10412;SDS011;5252;42.602;23.386;2022-10-23T12:49:13;2.78;;;1.42;;
10412;SDS011;5252;42.602;23.386;2022-10-23T12:51:40;3.05;;;1.55;;
10412;SDS011;5252;42.602;23.386;2022-10-23T12:54:12;1.80;;;1.48;;
10412;SDS011;5252;42.602;23.386;2022-10-23T12:56:39;2.38;;;1.73;;
10412;SDS011;5252;42.602;23.386;2022-10-23T12:59:09;2.35;;;1.35;;
10412;SDS011;5252;42.602;23.386;2022-10-23T13:01:38;2.92;;;1.85;;
10412;SDS011;5252;42.602;23.386;2022-10-23T13:04:10;1.70;;;1.38;;
10412;SDS011;5252;42.602;23.386;2022-10-23T13:06:38;3.30;;;1.35;;
10412;SDS011;5252;42.602;23.386;2022-10-23T13:09:06;3.05;;;1.80;;
10412;SDS011;5252;42.602;23.386;2022-10-23T13:11:39;1.58;;;1.23;;
10412;SDS011;5252;42.602;23.386;2022-10-23T13:14:09;1.75;;;1.20;;
10412;SDS011;5252;42.602;23.386;2022-10-23T13:16:36;1.70;;;1.50;;
10412;SDS011;5252;42.602;23.386;2022-10-23T13:19:03;3.85;;;1.75;;
10412;SDS011;5252;42.602;23.386;2022-10-23T13:21:31;3.17;;;1.63;;
10412;SDS011;5252;42.602;23.386;2022-10-23T13:23:57;2.13;;;1.60;;
10412;SDS011;5252;42.602;23.386;2022-10-23T13:26:28;2.63;;;1.00;;
10412;SDS011;5252;42.602;23.386;2022-10-23T13:28:55;3.25;;;1.98;;
10412;SDS011;5252;42.602;23.386;2022-10-23T13:31:24;3.00;;;1.63;;
10412;SDS011;5252;42.602;23.386;2022-10-23T13:33:51;3.05;;;1.30;;
10412;SDS011;5252;42.602;23.386;2022-10-23T13:36:28;2.28;;;1.50;;
10412;SDS011;5252;42.602;23.386;2022-10-23T13:39:01;3.83;;;1.55;;
10412;SDS011;5252;42.602;23.386;2022-10-23T13:41:28;2.10;;;1.40;;
10412;SDS011;5252;42.602;23.386;2022-10-23T13:43:56;3.95;;;1.70;;
10412;SDS011;5252;42.602;23.386;2022-10-23T13:46:23;3.28;;;1.88;;
10412;SDS011;5252;42.602;23.386;2022-10-23T13:48:49;3.15;;;2.13;;
10412;SDS011;5252;42.602;23.386;2022-10-23T13:51:17;1.92;;;1.60;;
10412;SDS011;5252;42.602;23.386;2022-10-23T13:53:45;1.65;;;1.40;;
10412;SDS011;5252;42.602;23.386;2022-10-23T13:56:13;19.95;;;9.90;;
10412;SDS011;5252;42.602;23.386;2022-10-23T13:58:40;4.60;;;2.30;;
10412;SDS011;5252;42.602;23.386;2022-10-23T14:01:11;4.07;;;1.90;;
10412;SDS011;5252;42.602;23.386;2022-10-23T14:03:37;14.30;;;7.18;;
10412;SDS011;5252;42.602;23.386;2022-10-23T14:06:04;3.88;;;2.30;;
10412;SDS011;5252;42.602;23.386;2022-10-23T14:08:31;3.20;;;2.20;;
10412;SDS011;5252;42.602;23.386;2022-10-23T14:10:57;3.58;;;1.52;;
10412;SDS011;5252;42.602;23.386;2022-10-23T14:13:25;9.18;;;5.10;;
10412;SDS011;5252;42.602;23.386;2022-10-23T14:15:52;5.60;;;3.53;;
10412;SDS011;5252;42.602;23.386;2022-10-23T14:18:19;7.30;;;1.73;;
10412;SDS011;5252;42.602;23.386;2022-10-23T14:20:45;35.40;;;19.73;;
10412;SDS011;5252;42.602;23.386;2022-10-23T14:23:12;25.13;;;17.10;;
10412;SDS011;5252;42.602;23.386;2022-10-23T14:25:39;19.65;;;13.32;;
10412;SDS011;5252;42.602;23.386;2022-10-23T14:28:05;6.22;;;3.92;;
10412;SDS011;5252;42.602;23.386;2022-10-23T14:30:34;14.50;;;7.57;;
10412;SDS011;5252;42.602;23.386;2022-10-23T14:33:00;19.75;;;11.35;;
10412;SDS011;5252;42.602;23.386;2022-10-23T14:35:27;33.80;;;19.15;;
10412;SDS011;5252;42.602;23.386;2022-10-23T14:37:54;11.60;;;8.23;;
10412;SDS011;5252;42.602;23.386;2022-10-23T14:40:21;6.82;;;4.03;;
10412;SDS011;5252;42.602;23.386;2022-10-23T14:42:48;3.63;;;3.05;;
10412;SDS011;5252;42.602;23.386;2022-10-23T14:45:15;3.25;;;2.45;;
10412;SDS011;5252;42.602;23.386;2022-10-23T14:47:42;2.78;;;2.35;;
10412;SDS011;5252;42.602;23.386;2022-10-23T14:50:10;3.88;;;2.70;;
10412;SDS011;5252;42.602;23.386;2022-10-23T14:52:37;7.70;;;5.75;;
10412;SDS011;5252;42.602;23.386;2022-10-23T14:55:04;4.97;;;4.15;;
10412;SDS011;5252;42.602;23.386;2022-10-23T14:57:30;14.27;;;10.32;;